Time;durP1;ratioP1;P1;durP2;ratioP2;P2;SDS_P1;SDS_P2;PMS_P1;PMS_P2;Temp;Humidity;BMP_temperature;BMP_pressure;BME280_temperature;BME280_humidity;BME280_pressure;Samples;Min_cycle;Max_cycle;Signal;HPM_P1;HPM_P2
2023/06/23 00:00:00;;;;;;;2.67;2.47;;;;;24.60;100399.00;;;;2084848;28;20286;-58
2023/06/23 00:01:01;;;;;;;2.80;2.30;;;;;24.60;100404.00;;;;2068029;28;20299;-58
2023/06/23 00:02:01;;;;;;;2.87;2.60;;;;;24.60;100411.00;;;;2084089;28;20245;-58
2023/06/23 00:03:01;;;;;;;3.30;2.70;;;;;24.60;100432.00;;;;2076596;28;21270;-58
2023/06/23 00:04:02;;;;;;;3.10;2.80;;;;;24.50;100413.00;;;;2081280;28;20922;-58
2023/06/23 00:05:04;;;;;;;3.00;2.80;;;;;24.60;100410.00;;;;2074047;28;20645;-59
2023/06/23 00:06:05;;;;;;;2.75;2.50;;;;;24.60;100409.00;;;;2083253;28;20216;-58
2023/06/23 00:07:05;;;;;;;3.33;3.00;;;;;24.50;100416.00;;;;2081582;28;20212;-58
2023/06/23 00:08:06;;;;;;;3.67;2.50;;;;;24.50;100389.00;;;;2084498;28;20209;-58
2023/06/23 00:09:13;;;;;;;2.80;2.60;;;;;24.50;100419.00;;;;2074380;28;20220;-59
2023/06/23 00:10:14;;;;;;;4.45;3.13;;;;;24.50;100421.00;;;;2066512;28;20513;-58
2023/06/23 00:11:14;;;;;;;2.93;2.60;;;;;24.50;100420.00;;;;2081762;28;20695;-58
2023/06/23 00:12:15;;;;;;;2.83;2.53;;;;;24.50;100416.00;;;;2083524;28;20304;-58
2023/06/23 00:13:15;;;;;;;3.53;2.70;;;;;24.50;100427.00;;;;2080842;28;20680;-58
2023/06/23 00:14:16;;;;;;;3.80;2.70;;;;;24.50;100439.00;;;;2080684;28;20286;-58
2023/06/23 00:15:16;;;;;;;2.47;2.20;;;;;24.50;100438.00;;;;2071940;28;20222;-58
2023/06/23 00:16:17;;;;;;;2.50;2.30;;;;;24.60;100440.00;;;;2077823;28;20271;-57
2023/06/23 00:17:17;;;;;;;2.80;2.40;;;;;24.50;100452.00;;;;2084392;28;20213;-59
2023/06/23 00:18:17;;;;;;;2.67;2.47;;;;;24.50;100459.00;;;;2084566;28;20295;-59
2023/06/23 00:19:17;;;;;;;2.70;2.43;;;;;24.50;100472.00;;;;2083663;28;20939;-58
2023/06/23 00:20:19;;;;;;;2.83;2.53;;;;;24.50;100472.00;;;;2068264;28;20725;-58
2023/06/23 00:21:20;;;;;;;3.80;2.78;;;;;24.60;100476.00;;;;2078760;28;20585;-58
2023/06/23 00:22:20;;;;;;;2.85;2.30;;;;;24.60;100476.00;;;;2084271;28;20208;-58
2023/06/23 00:23:21;;;;;;;3.30;2.40;;;;;24.60;100490.00;;;;2082871;28;20217;-58
2023/06/23 00:24:21;;;;;;;3.33;2.90;;;;;24.60;100489.00;;;;2084509;28;20217;-58
2023/06/23 00:25:21;;;;;;;2.87;2.60;;;;;24.50;100494.00;;;;2072503;28;20236;-58
2023/06/23 00:26:23;;;;;;;2.83;2.53;;;;;24.50;100484.00;;;;2083260;28;20209;-58
2023/06/23 00:27:24;;;;;;;4.20;2.38;;;;;24.60;100493.00;;;;2072028;28;20241;-58
2023/06/23 00:28:27;;;;;;;2.80;2.50;;;;;24.50;100491.00;;;;2070864;28;20253;-59
2023/06/23 00:29:27;;;;;;;4.40;2.80;;;;;24.50;100487.00;;;;2084797;28;20209;-58
2023/06/23 00:30:27;;;;;;;2.50;2.30;;;;;24.50;100488.00;;;;2067425;28;20233;-58
2023/06/23 00:31:28;;;;;;;2.43;2.23;;;;;24.50;100490.00;;;;2083622;28;20225;-58
2023/06/23 00:32:28;;;;;;;3.57;2.90;;;;;24.50;100492.00;;;;2084202;28;20636;-58
2023/06/23 00:33:28;;;;;;;2.90;2.60;;;;;24.50;100492.00;;;;2074065;28;20283;-58
2023/06/23 00:34:29;;;;;;;2.50;2.20;;;;;24.50;100486.00;;;;2071752;28;20213;-58
2023/06/23 00:35:29;;;;;;;3.83;3.20;;;;;24.50;100499.00;;;;2066184;28;20738;-58
2023/06/23 00:36:30;;;;;;;3.17;2.33;;;;;24.50;100499.00;;;;2066678;28;21017;-58
2023/06/23 00:37:30;;;;;;;2.80;2.50;;;;;24.50;100496.00;;;;2074987;28;20213;-59
2023/06/23 00:38:33;;;;;;;3.20;2.90;;;;;24.30;100496.00;;;;2067548;28;20206;-58
2023/06/23 00:39:34;;;;;;;2.80;2.60;;;;;24.50;100505.00;;;;2069681;28;20217;-59
2023/06/23 00:40:34;;;;;;;3.20;2.67;;;;;24.50;100510.00;;;;2072721;28;20221;-59
2023/06/23 00:41:34;;;;;;;3.03;2.70;;;;;24.50;100518.00;;;;2079798;28;20217;-59
2023/06/23 00:42:45;;;;;;;3.10;2.50;;;;;24.50;100515.00;;;;2080428;28;21121;-59
2023/06/23 00:43:50;;;;;;;3.83;2.78;;;;;24.50;100518.00;;;;2080682;28;20223;-58
2023/06/23 00:44:50;;;;;;;3.35;2.70;;;;;24.50;100519.00;;;;2080952;28;20320;-59
2023/06/23 00:45:51;;;;;;;3.40;3.10;;;;;24.50;100532.00;;;;2068136;28;20777;-58
2023/06/23 00:46:51;;;;;;;3.10;2.70;;;;;24.50;100523.00;;;;2073671;28;20793;-58
2023/06/23 00:47:51;;;;;;;3.27;2.63;;;;;24.50;100522.00;;;;2070795;28;20672;-58
2023/06/23 00:48:52;;;;;;;2.47;2.27;;;;;24.50;100530.00;;;;2074476;28;20221;-58
2023/06/23 00:49:52;;;;;;;3.67;2.70;;;;;24.50;100538.00;;;;2074366;28;20304;-58
2023/06/23 00:50:52;;;;;;;3.37;2.93;;;;;24.50;100536.00;;;;2059951;28;20222;-58
2023/06/23 00:51:53;;;;;;;2.73;2.50;;;;;24.50;100534.00;;;;2074094;28;20375;-58
2023/06/23 00:52:53;;;;;;;3.13;2.70;;;;;24.50;100539.00;;;;2060583;28;20262;-57
2023/06/23 00:53:54;;;;;;;3.37;3.07;;;;;24.50;100535.00;;;;2064982;28;20218;-58
2023/06/23 00:54:54;;;;;;;3.20;2.80;;;;;24.50;100544.00;;;;2068570;28;20214;-58
2023/06/23 00:55:54;;;;;;;2.70;2.50;;;;;24.50;100553.00;;;;2063511;28;20214;-58
2023/06/23 00:56:58;;;;;;;4.13;2.83;;;;;24.50;100547.00;;;;2083856;28;20205;-58
2023/06/23 00:57:58;;;;;;;2.85;2.55;;;;;24.50;100551.00;;;;2076619;28;20218;-58
2023/06/23 00:58:59;;;;;;;3.27;2.40;;;;;24.50;100547.00;;;;2075212;28;20237;-58
2023/06/23 00:59:59;;;;;;;3.00;2.80;;;;;24.50;100546.00;;;;2076678;28;20758;-59
2023/06/23 01:01:00;;;;;;;2.87;2.63;;;;;24.00;100546.00;;;;2061736;28;20641;-59
2023/06/23 01:02:01;;;;;;;3.33;3.03;;;;;24.50;100550.00;;;;2084088;28;20300;-59
2023/06/23 01:03:02;;;;;;;3.13;2.83;;;;;24.50;100554.00;;;;2068808;28;20218;-58
2023/06/23 01:04:03;;;;;;;3.70;2.92;;;;;24.50;100546.00;;;;2077161;28;20563;-58
2023/06/23 01:05:04;;;;;;;4.10;2.80;;;;;24.50;100489.00;;;;2065922;28;20220;-58
2023/06/23 01:06:09;;;;;;;2.97;2.77;;;;;24.50;100556.00;;;;2075420;28;21181;-58
2023/06/23 01:07:33;;;;;;;2.63;2.42;;;;;24.50;100550.00;;;;2073508;28;20237;-58
2023/06/23 01:08:36;;;;;;;3.88;3.28;;;;;24.50;100559.00;;;;2063943;28;20224;-58
2023/06/23 01:09:49;;;;;;;3.40;2.72;;;;;24.50;100561.00;;;;2068497;28;20218;-58
2023/06/23 01:11:02;;;;;;;3.63;2.67;;;;;24.50;100569.00;;;;2063785;28;20217;-58
2023/06/23 01:12:28;;;;;;;3.03;2.72;;;;;24.50;100566.00;;;;2072490;28;20232;-59
2023/06/23 01:13:32;;;;;;;3.42;2.42;;;;;24.50;100567.00;;;;2072061;28;20237;-59
2023/06/23 01:14:40;;;;;;;3.30;2.85;;;;;24.50;100560.00;;;;2076092;28;20210;-57
2023/06/23 01:15:44;;;;;;;3.33;2.70;;;;;24.50;100600.00;;;;2056521;28;20743;-58
2023/06/23 01:16:52;;;;;;;2.80;2.60;;;;;24.50;100572.00;;;;2049622;28;20752;-58
2023/06/23 01:18:02;;;;;;;4.13;3.08;;;;;24.50;100576.00;;;;2062624;28;20703;-57
2023/06/23 01:19:33;;;;;;;3.13;2.83;;;;;24.50;100568.00;;;;2077178;28;20560;-58
2023/06/23 01:20:36;;;;;;;2.72;2.40;;;;;24.50;100576.00;;;;2075489;28;20632;-58
2023/06/23 01:21:57;;;;;;;3.33;3.03;;;;;24.50;100589.00;;;;2068193;28;20210;-58
2023/06/23 01:23:16;;;;;;;4.47;3.38;;;;;24.50;100486.00;;;;2070106;28;20284;-58
2023/06/23 01:24:21;;;;;;;3.63;2.90;;;;;24.50;100589.00;;;;2078000;28;20243;-58
2023/06/23 01:25:41;;;;;;;3.28;2.97;;;;;24.50;100589.00;;;;2067413;28;20679;-58
2023/06/23 01:26:50;;;;;;;3.55;2.83;;;;;24.50;100600.00;;;;2067593;28;20215;-58
2023/06/23 01:27:58;;;;;;;3.15;2.85;;;;;24.50;100600.00;;;;2064507;28;20238;-58
2023/06/23 01:28:58;;;;;;;3.08;2.72;;;;;24.50;100608.00;;;;2068421;28;20217;-58
2023/06/23 01:30:01;;;;;;;3.20;2.90;;;;;24.50;100616.00;;;;2055347;28;20235;-59
2023/06/23 01:31:02;;;;;;;3.97;2.90;;;;;24.50;100606.00;;;;2051562;28;20207;-59
2023/06/23 01:32:10;;;;;;;4.70;3.17;;;;;24.50;100613.00;;;;2066381;28;20261;-59
2023/06/23 01:33:15;;;;;;;3.03;2.67;;;;;24.50;100613.00;;;;2067207;28;21060;-58
2023/06/23 01:34:20;;;;;;;3.28;2.70;;;;;24.50;100615.00;;;;2059874;28;20215;-59
2023/06/23 01:35:23;;;;;;;3.42;3.10;;;;;24.50;100619.00;;;;2055425;28;20222;-58
2023/06/23 01:36:43;;;;;;;3.25;2.80;;;;;24.50;100615.00;;;;2072179;28;20324;-58
2023/06/23 01:37:43;;;;;;;3.30;2.80;;;;;24.50;100601.00;;;;2080296;28;20213;-59
2023/06/23 01:38:46;;;;;;;3.47;3.07;;;;;24.50;100648.00;;;;2067957;28;20210;-58
2023/06/23 01:39:57;;;;;;;2.88;2.50;;;;;24.50;100611.00;;;;2066578;28;20210;-59
2023/06/23 01:40:58;;;;;;;3.70;3.00;;;;;24.50;100603.00;;;;2049862;28;20211;-59
2023/06/23 01:42:00;;;;;;;3.00;2.80;;;;;24.50;100619.00;;;;2051969;28;20232;-58
2023/06/23 01:43:00;;;;;;;3.60;3.28;;;;;24.50;100610.00;;;;2046740;28;20227;-58
2023/06/23 01:44:03;;;;;;;3.40;3.10;;;;;24.50;100609.00;;;;2044341;28;20977;-57
2023/06/23 01:45:04;;;;;;;3.72;2.70;;;;;24.50;100613.00;;;;2050061;28;20250;-59
2023/06/23 01:46:15;;;;;;;3.08;2.78;;;;;24.50;100619.00;;;;2060807;28;20215;-58
2023/06/23 01:47:20;;;;;;;3.30;2.90;;;;;24.50;100625.00;;;;2065450;28;20930;-59
2023/06/23 01:48:20;;;;;;;3.40;2.83;;;;;24.50;100634.00;;;;2068604;28;20245;-59
2023/06/23 01:49:26;;;;;;;3.30;2.97;;;;;24.50;100623.00;;;;2076575;28;20658;-58
2023/06/23 01:50:26;;;;;;;3.55;2.95;;;;;24.50;100615.00;;;;2066009;28;20260;-59
2023/06/23 01:51:26;;;;;;;3.20;2.90;;;;;24.40;100626.00;;;;2061718;28;20242;-57
2023/06/23 01:52:27;;;;;;;3.67;3.03;;;;;24.50;100625.00;;;;2063781;28;20225;-58
2023/06/23 01:53:29;;;;;;;3.33;3.03;;;;;24.50;100616.00;;;;2068257;28;20925;-57
2023/06/23 01:54:30;;;;;;;3.95;3.00;;;;;24.50;100615.00;;;;2062252;28;20322;-57
2023/06/23 01:55:30;;;;;;;3.20;2.73;;;;;24.50;100610.00;;;;2054796;28;20316;-57
2023/06/23 01:56:30;;;;;;;2.73;2.50;;;;;24.50;100618.00;;;;2059506;28;20233;-58
2023/06/23 01:57:31;;;;;;;3.00;2.70;;;;;24.50;100623.00;;;;2059573;28;20206;-58
2023/06/23 01:58:32;;;;;;;3.50;3.00;;;;;24.50;100601.00;;;;2064606;28;20214;-58
2023/06/23 01:59:33;;;;;;;3.37;3.03;;;;;24.50;100623.00;;;;2068024;28;20214;-58
2023/06/23 02:00:33;;;;;;;3.20;2.90;;;;;24.50;100625.00;;;;2050017;28;20477;-58
2023/06/23 02:01:34;;;;;;;3.23;2.90;;;;;24.50;100628.00;;;;2046257;28;20448;-58
2023/06/23 02:02:34;;;;;;;3.33;2.80;;;;;24.50;100631.00;;;;2060908;28;20226;-57
2023/06/23 02:03:34;;;;;;;3.73;2.90;;;;;24.50;100638.00;;;;2056070;28;20343;-57
2023/06/23 02:04:35;;;;;;;4.20;3.47;;;;;24.50;100635.00;;;;2062507;28;20202;-58
2023/06/23 02:05:35;;;;;;;3.60;2.60;;;;;24.50;100643.00;;;;2062658;28;20301;-58
2023/06/23 02:06:36;;;;;;;3.90;3.20;;;;;24.40;100646.00;;;;2067100;28;20212;-58
2023/06/23 02:07:37;;;;;;;3.00;2.80;;;;;24.50;100631.00;;;;2068690;28;26143;-58
2023/06/23 02:08:39;;;;;;;2.60;2.40;;;;;24.50;100631.00;;;;2059571;28;20214;-58
2023/06/23 02:09:41;;;;;;;2.97;2.67;;;;;24.50;100644.00;;;;2053121;28;21269;-58
2023/06/23 02:10:41;;;;;;;3.28;2.97;;;;;24.50;100652.00;;;;2047080;28;20234;-58
2023/06/23 02:11:42;;;;;;;3.67;3.37;;;;;24.50;100656.00;;;;2061387;28;20310;-57
2023/06/23 02:12:43;;;;;;;4.60;3.90;;;;;24.40;100650.00;;;;2060625;28;20218;-59
2023/06/23 02:13:43;;;;;;;6.35;3.80;;;;;24.20;100651.00;;;;2063241;28;20217;-57
2023/06/23 02:14:44;;;;;;;5.20;2.80;;;;;24.20;100650.00;;;;2061739;28;20219;-58
2023/06/23 02:15:44;;;;;;;3.93;3.23;;;;;24.20;100651.00;;;;2061838;28;20236;-58
2023/06/23 02:16:45;;;;;;;6.70;3.80;;;;;24.30;100644.00;;;;2058985;28;20255;-58
2023/06/23 02:17:46;;;;;;;5.93;3.30;;;;;24.30;100643.00;;;;2066165;28;20285;-58
2023/06/23 02:18:53;;;;;;;7.90;3.63;;;;;24.30;100635.00;;;;2060170;28;20295;-58
2023/06/23 02:19:54;;;;;;;3.30;2.58;;;;;24.30;100652.00;;;;2067901;28;20345;-58
2023/06/23 02:20:54;;;;;;;5.07;2.70;;;;;24.40;100646.00;;;;2049109;28;20227;-58
2023/06/23 02:21:55;;;;;;;3.00;2.70;;;;;24.30;100641.00;;;;2060147;28;20211;-57
2023/06/23 02:22:55;;;;;;;3.23;2.93;;;;;24.40;100645.00;;;;2062894;28;20214;-58
2023/06/23 02:23:55;;;;;;;3.87;3.57;;;;;24.40;100644.00;;;;2066822;28;20206;-58
2023/06/23 02:24:56;;;;;;;3.90;2.73;;;;;24.40;100645.00;;;;2067387;28;20278;-58
2023/06/23 02:25:56;;;;;;;3.87;3.23;;;;;24.40;100652.00;;;;2050251;28;20314;-58
2023/06/23 02:26:56;;;;;;;3.10;2.80;;;;;24.40;100652.00;;;;2068456;28;20211;-58
2023/06/23 02:27:57;;;;;;;3.97;3.37;;;;;24.40;100657.00;;;;2067809;28;20218;-57
2023/06/23 02:28:57;;;;;;;5.30;3.03;;;;;24.40;100649.00;;;;2068222;28;20237;-58
2023/06/23 02:29:58;;;;;;;4.10;2.87;;;;;24.40;100661.00;;;;2061844;28;20530;-58
2023/06/23 02:30:59;;;;;;;3.60;2.53;;;;;24.40;100667.00;;;;2050557;28;20211;-58
2023/06/23 02:31:59;;;;;;;3.90;2.90;;;;;24.40;100666.00;;;;2060860;28;20230;-58
2023/06/23 02:33:00;;;;;;;3.43;3.00;;;;;24.40;100663.00;;;;2058338;28;21072;-58
2023/06/23 02:34:00;;;;;;;3.10;2.80;;;;;24.40;100669.00;;;;2060989;28;20218;-58
2023/06/23 02:35:01;;;;;;;3.80;3.10;;;;;24.40;100673.00;;;;2066715;28;20726;-58
2023/06/23 02:36:02;;;;;;;3.50;3.13;;;;;24.40;100675.00;;;;2045136;28;20259;-58
2023/06/23 02:37:04;;;;;;;3.53;2.30;;;;;24.40;100680.00;;;;2066253;28;20249;-58
2023/06/23 02:38:09;;;;;;;4.43;2.63;;;;;24.40;100659.00;;;;2060654;28;20318;-57
2023/06/23 02:39:10;;;;;;;3.90;2.30;;;;;24.40;100677.00;;;;2052167;28;20227;-59
2023/06/23 02:40:16;;;;;;;4.45;2.65;;;;;24.40;100675.00;;;;2049959;28;20272;-59
2023/06/23 02:41:17;;;;;;;3.03;2.72;;;;;24.40;100676.00;;;;2067721;28;20222;-57
2023/06/23 02:42:19;;;;;;;3.90;2.83;;;;;24.40;100672.00;;;;2066622;28;20218;-59
2023/06/23 02:43:25;;;;;;;3.55;2.63;;;;;24.40;100687.00;;;;2064987;28;20305;-58
2023/06/23 02:44:37;;;;;;;3.05;2.75;;;;;24.40;100675.00;;;;2064851;28;20950;-58
2023/06/23 02:45:39;;;;;;;3.40;2.75;;;;;24.30;100687.00;;;;2041334;28;20287;-59
2023/06/23 02:46:39;;;;;;;3.50;3.10;;;;;24.30;100675.00;;;;2051608;28;20227;-58
2023/06/23 02:47:40;;;;;;;3.00;2.67;;;;;24.40;100689.00;;;;2053057;28;20307;-58
2023/06/23 02:48:40;;;;;;;3.10;2.80;;;;;24.40;100689.00;;;;2055959;28;20292;-58
2023/06/23 02:49:40;;;;;;;4.27;3.10;;;;;24.30;100685.00;;;;2051395;28;20247;-58
2023/06/23 02:50:41;;;;;;;4.67;3.27;;;;;24.30;100689.00;;;;2041517;28;20295;-58
2023/06/23 02:51:41;;;;;;;3.00;2.70;;;;;24.30;100690.00;;;;2074658;28;20225;-58
2023/06/23 02:52:44;;;;;;;3.03;2.73;;;;;24.30;100689.00;;;;2076225;28;20224;-58
2023/06/23 02:53:48;;;;;;;5.38;3.17;;;;;24.30;100697.00;;;;2065617;28;20218;-58
2023/06/23 02:54:49;;;;;;;2.75;2.55;;;;;24.10;100697.00;;;;2054288;28;20223;-58
2023/06/23 02:55:52;;;;;;;3.40;3.10;;;;;24.30;100695.00;;;;2052978;28;20217;-58
2023/06/23 02:56:53;;;;;;;3.53;2.90;;;;;24.40;100696.00;;;;2068986;28;20229;-58
2023/06/23 02:57:54;;;;;;;4.83;2.70;;;;;24.30;100698.00;;;;2063806;28;20219;-58
2023/06/23 02:58:59;;;;;;;3.58;2.97;;;;;24.30;100695.00;;;;2065092;28;20457;-58
2023/06/23 03:00:00;;;;;;;2.95;2.50;;;;;24.00;100703.00;;;;2056754;28;20207;-58
2023/06/23 03:01:04;;;;;;;3.50;2.60;;;;;24.30;100705.00;;;;2058242;28;20218;-58
2023/06/23 03:02:04;;;;;;;3.13;2.50;;;;;24.30;100700.00;;;;2051938;28;20215;-59
2023/06/23 03:03:07;;;;;;;4.50;3.60;;;;;24.30;100702.00;;;;2050245;28;20748;-58
2023/06/23 03:04:07;;;;;;;3.00;2.70;;;;;24.30;100700.00;;;;2060087;28;20687;-57
2023/06/23 03:05:08;;;;;;;3.70;3.13;;;;;24.30;100706.00;;;;2057942;28;20256;-58
2023/06/23 03:06:21;;;;;;;3.53;3.07;;;;;24.30;100713.00;;;;2060485;28;20654;-59
2023/06/23 03:07:21;;;;;;;3.47;2.92;;;;;24.30;100711.00;;;;2082385;28;20221;-58
2023/06/23 03:08:21;;;;;;;5.00;3.40;;;;;24.30;100709.00;;;;2075032;28;20205;-58
2023/06/23 03:09:22;;;;;;;3.80;3.03;;;;;24.30;100713.00;;;;2069312;28;20206;-59
2023/06/23 03:10:22;;;;;;;3.57;2.93;;;;;24.30;100709.00;;;;2059651;28;20333;-58
2023/06/23 03:11:23;;;;;;;5.33;3.20;;;;;24.30;100711.00;;;;2076133;28;20241;-58
2023/06/23 03:12:23;;;;;;;3.37;3.07;;;;;24.30;100702.00;;;;2083033;28;20235;-58
2023/06/23 03:13:24;;;;;;;3.97;3.20;;;;;24.30;100715.00;;;;2074404;28;20248;-57
2023/06/23 03:14:24;;;;;;;3.50;2.97;;;;;24.30;100724.00;;;;2067904;28;20218;-57
2023/06/23 03:15:25;;;;;;;3.47;3.17;;;;;24.30;100724.00;;;;2068265;28;20464;-57
2023/06/23 03:16:48;;;;;;;3.67;3.27;;;;;23.90;100721.00;;;;2070023;28;20409;-58
2023/06/23 03:17:48;;;;;;;4.20;3.80;;;;;24.30;100730.00;;;;2067662;28;20205;-58
2023/06/23 03:19:03;;;;;;;3.57;3.27;;;;;24.30;100742.00;;;;2067229;28;20297;-58
2023/06/23 03:20:25;;;;;;;3.80;3.13;;;;;24.30;100731.00;;;;2056256;28;20550;-60
2023/06/23 03:21:25;;;;;;;4.18;2.90;;;;;24.30;100726.00;;;;2063497;28;20955;-57
2023/06/23 03:22:28;;;;;;;3.27;2.97;;;;;24.30;100734.00;;;;2066411;28;20293;-58
2023/06/23 03:23:29;;;;;;;3.70;3.15;;;;;24.30;100735.00;;;;2065698;28;20294;-57
2023/06/23 03:24:31;;;;;;;3.57;3.10;;;;;24.30;100726.00;;;;2062494;28;20344;-58
2023/06/23 03:25:31;;;;;;;5.50;3.80;;;;;24.30;100744.00;;;;2054534;28;20221;-57
2023/06/23 03:26:31;;;;;;;2.93;2.50;;;;;24.30;100744.00;;;;2062951;28;20221;-58
2023/06/23 03:27:32;;;;;;;4.03;3.50;;;;;24.30;100744.00;;;;2061318;28;20268;-59
2023/06/23 03:28:33;;;;;;;4.35;3.22;;;;;24.30;100749.00;;;;2062833;28;20344;-58
2023/06/23 03:29:37;;;;;;;4.63;3.43;;;;;24.30;100742.00;;;;2062317;28;20224;-59
2023/06/23 03:30:45;;;;;;;3.78;3.40;;;;;24.30;100749.00;;;;2042960;28;20227;-58
2023/06/23 03:31:46;;;;;;;5.03;3.55;;;;;24.30;100753.00;;;;2062872;28;20312;-58
2023/06/23 03:32:50;;;;;;;3.03;2.73;;;;;24.30;100754.00;;;;2067216;28;20225;-57
2023/06/23 03:33:50;;;;;;;4.07;3.08;;;;;24.30;100757.00;;;;2067324;28;20847;-58
2023/06/23 03:35:20;;;;;;;3.30;3.00;;;;;24.30;100760.00;;;;2067736;28;20252;-58
2023/06/23 03:36:22;;;;;;;6.20;2.90;;;;;24.30;100766.00;;;;2050772;28;20772;-59
2023/06/23 03:37:22;;;;;;;4.50;3.42;;;;;24.30;100777.00;;;;2073556;28;20209;-60
2023/06/23 03:38:23;;;;;;;4.30;3.87;;;;;24.30;100774.00;;;;2056187;28;20675;-58
2023/06/23 03:39:24;;;;;;;3.87;3.00;;;;;24.30;100770.00;;;;2056555;28;20840;-59
2023/06/23 03:40:24;;;;;;;4.03;3.10;;;;;24.30;100779.00;;;;2049681;28;20222;-58
2023/06/23 03:41:26;;;;;;;4.73;3.43;;;;;24.30;100771.00;;;;2065101;28;20466;-58
2023/06/23 03:42:27;;;;;;;3.08;2.78;;;;;24.30;100781.00;;;;2073255;28;20293;-58
2023/06/23 03:43:30;;;;;;;3.70;3.40;;;;;24.30;100772.00;;;;2065477;28;20277;-57
2023/06/23 03:44:39;;;;;;;3.78;3.22;;;;;24.30;100784.00;;;;2057337;28;20234;-58
2023/06/23 03:45:39;;;;;;;5.28;2.70;;;;;24.30;100800.00;;;;2052157;28;20218;-58
2023/06/23 03:46:51;;;;;;;5.00;3.00;;;;;24.30;100785.00;;;;2060234;28;20306;-58
2023/06/23 03:47:54;;;;;;;3.72;3.05;;;;;24.30;100783.00;;;;2057489;28;20227;-58
2023/06/23 03:48:56;;;;;;;4.15;3.50;;;;;24.30;100782.00;;;;2059405;28;20235;-58
2023/06/23 03:50:02;;;;;;;4.47;2.97;;;;;24.30;100777.00;;;;2064054;28;20301;-58
2023/06/23 03:51:03;;;;;;;4.75;3.20;;;;;24.30;100791.00;;;;2053621;28;20225;-57
2023/06/23 03:52:04;;;;;;;3.50;3.20;;;;;24.30;100777.00;;;;2065258;28;20240;-58
2023/06/23 03:53:05;;;;;;;5.50;2.93;;;;;24.30;100788.00;;;;2039182;28;20670;-57
2023/06/23 03:54:05;;;;;;;3.93;3.50;;;;;24.30;100789.00;;;;2065477;28;20469;-58
2023/06/23 03:55:06;;;;;;;4.17;3.30;;;;;24.30;100784.00;;;;2048663;28;20214;-58
2023/06/23 03:56:06;;;;;;;3.93;3.53;;;;;24.30;100797.00;;;;2046827;28;21020;-58
2023/06/23 03:57:08;;;;;;;4.10;3.17;;;;;24.30;100813.00;;;;2062442;28;20246;-58
2023/06/23 03:58:09;;;;;;;3.70;3.40;;;;;24.30;100803.00;;;;2052330;28;20231;-57
2023/06/23 03:59:09;;;;;;;5.27;3.53;;;;;24.30;100799.00;;;;2071833;28;20719;-58
2023/06/23 04:00:10;;;;;;;3.93;3.53;;;;;24.30;100796.00;;;;2048829;28;21006;-58
2023/06/23 04:01:10;;;;;;;4.37;3.20;;;;;24.30;100782.00;;;;2061062;28;20662;-57
2023/06/23 04:02:11;;;;;;;4.57;3.60;;;;;24.30;100801.00;;;;2055816;28;20286;-58
2023/06/23 04:03:11;;;;;;;3.57;3.27;;;;;24.30;100801.00;;;;2050656;28;20215;-57
2023/06/23 04:04:12;;;;;;;5.30;3.30;;;;;24.30;100808.00;;;;2053515;28;20898;-58
2023/06/23 04:05:13;;;;;;;3.20;2.90;;;;;24.30;100805.00;;;;2057435;28;20208;-57
2023/06/23 04:06:13;;;;;;;5.00;4.05;;;;;24.30;100806.00;;;;2058976;28;20229;-57
2023/06/23 04:07:14;;;;;;;4.67;3.10;;;;;24.30;100805.00;;;;2055946;28;20238;-57
2023/06/23 04:08:14;;;;;;;5.20;3.30;;;;;24.30;100805.00;;;;2059692;28;20280;-58
2023/06/23 04:09:14;;;;;;;3.90;3.30;;;;;24.40;100792.00;;;;2063407;28;20226;-59
2023/06/23 04:10:17;;;;;;;3.93;3.07;;;;;24.40;100808.00;;;;2049232;28;20332;-58
2023/06/23 04:11:17;;;;;;;5.15;3.20;;;;;24.40;100817.00;;;;2053946;28;20297;-57
2023/06/23 04:12:17;;;;;;;4.83;3.33;;;;;24.50;100820.00;;;;2067593;28;20224;-58
2023/06/23 04:13:19;;;;;;;6.67;3.63;;;;;24.60;100806.00;;;;2066078;28;20222;-58
2023/06/23 04:14:19;;;;;;;3.58;3.08;;;;;24.60;100800.00;;;;2066428;28;20233;-57
2023/06/23 04:15:19;;;;;;;4.80;3.60;;;;;24.50;100810.00;;;;2048323;28;20250;-58
2023/06/23 04:16:20;;;;;;;5.10;3.37;;;;;24.50;100816.00;;;;2048970;28;20219;-58
2023/06/23 04:17:22;;;;;;;4.23;3.80;;;;;24.50;100827.00;;;;2053405;28;20804;-58
2023/06/23 04:18:23;;;;;;;4.55;3.97;;;;;24.50;100824.00;;;;2051181;28;20224;-59
2023/06/23 04:19:27;;;;;;;4.68;3.40;;;;;24.60;100818.00;;;;2055672;28;20215;-57
2023/06/23 04:20:27;;;;;;;3.88;3.38;;;;;24.50;100807.00;;;;2062610;28;20225;-59
2023/06/23 04:21:27;;;;;;;5.87;3.40;;;;;24.40;100822.00;;;;2064596;28;20225;-59
2023/06/23 04:22:27;;;;;;;5.17;3.10;;;;;24.40;100827.00;;;;2065021;28;20215;-59
2023/06/23 04:23:28;;;;;;;4.50;3.07;;;;;24.40;100837.00;;;;2064899;28;20283;-58
2023/06/23 04:24:28;;;;;;;5.77;3.50;;;;;24.40;100818.00;;;;2064818;28;20253;-58
2023/06/23 04:25:28;;;;;;;3.60;3.20;;;;;24.40;100831.00;;;;2055300;28;20206;-58
2023/06/23 04:26:29;;;;;;;4.80;3.77;;;;;24.30;100830.00;;;;2064927;28;20211;-57
2023/06/23 04:27:29;;;;;;;4.50;3.70;;;;;24.30;100844.00;;;;2051677;28;20212;-58
2023/06/23 04:28:29;;;;;;;5.23;3.30;;;;;24.40;100836.00;;;;2074702;28;20202;-61
2023/06/23 04:29:30;;;;;;;4.33;3.60;;;;;24.30;100839.00;;;;2076249;28;20284;-58
2023/06/23 04:30:31;;;;;;;5.90;3.83;;;;;24.30;100819.00;;;;2052278;28;20265;-60
2023/06/23 04:31:32;;;;;;;5.25;3.13;;;;;24.30;100849.00;;;;2054604;28;20609;-59
2023/06/23 04:32:33;;;;;;;3.43;2.97;;;;;24.40;100836.00;;;;2053639;28;20326;-59
2023/06/23 04:33:33;;;;;;;5.70;3.40;;;;;24.40;100839.00;;;;2063582;28;20470;-58
2023/06/23 04:34:33;;;;;;;5.37;3.40;;;;;24.50;100848.00;;;;2055983;28;20291;-57
2023/06/23 04:35:35;;;;;;;4.80;3.40;;;;;24.50;100846.00;;;;2043964;28;20259;-58
2023/06/23 04:36:49;;;;;;;7.13;3.60;;;;;24.50;100849.00;;;;2053557;28;20242;-58
2023/06/23 04:38:10;;;;;;;4.85;3.40;;;;;24.50;100844.00;;;;2061378;28;20218;-58
2023/06/23 04:39:19;;;;;;;4.78;3.50;;;;;24.60;100848.00;;;;2064040;28;20758;-59
2023/06/23 04:40:22;;;;;;;4.90;3.28;;;;;24.50;100856.00;;;;2053397;28;20585;-58
2023/06/23 04:41:23;;;;;;;9.05;3.75;;;;;24.40;100853.00;;;;2077773;28;20245;-57
2023/06/23 04:42:29;;;;;;;6.00;3.20;;;;;24.40;100849.00;;;;2068451;28;20608;-57
2023/06/23 04:43:31;;;;;;;4.32;3.70;;;;;24.40;100854.00;;;;2060907;28;20218;-58
2023/06/23 04:44:32;;;;;;;4.43;3.72;;;;;24.40;100848.00;;;;2049266;28;20248;-59
2023/06/23 04:45:33;;;;;;;6.13;3.40;;;;;24.40;100853.00;;;;2046593;28;20227;-58
2023/06/23 04:46:33;;;;;;;6.23;3.73;;;;;24.40;100854.00;;;;2067200;28;20453;-58
2023/06/23 04:47:34;;;;;;;4.40;3.80;;;;;24.40;100861.00;;;;2067316;28;20214;-57
2023/06/23 04:48:35;;;;;;;7.82;3.60;;;;;24.40;100871.00;;;;2064711;28;20702;-58
2023/06/23 04:49:35;;;;;;;6.23;3.50;;;;;24.40;100874.00;;;;2067488;28;20289;-60
2023/06/23 04:50:36;;;;;;;4.10;3.60;;;;;24.30;100855.00;;;;2046967;28;20462;-59
2023/06/23 04:51:48;;;;;;;7.00;4.23;;;;;24.30;100863.00;;;;2060637;28;20223;-58
2023/06/23 04:52:51;;;;;;;6.15;3.88;;;;;24.30;100873.00;;;;2068587;28;20221;-57
2023/06/23 04:53:53;;;;;;;6.20;3.72;;;;;24.40;100869.00;;;;2070624;28;20327;-60
2023/06/23 04:54:58;;;;;;;7.65;3.75;;;;;24.40;100875.00;;;;2063221;28;20227;-56
2023/06/23 04:56:00;;;;;;;3.60;3.30;;;;;24.40;100869.00;;;;2056234;28;20210;-58
2023/06/23 04:57:02;;;;;;;4.15;3.75;;;;;24.40;100871.00;;;;2058777;28;21085;-58
2023/06/23 04:58:03;;;;;;;9.15;4.10;;;;;24.40;100864.00;;;;2049662;28;20216;-58
2023/06/23 04:59:05;;;;;;;5.00;3.28;;;;;24.40;100870.00;;;;2049112;28;20743;-58
2023/06/23 05:00:07;;;;;;;6.45;3.80;;;;;24.50;100874.00;;;;2043649;28;20999;-58
2023/06/23 05:01:08;;;;;;;18.58;5.50;;;;;24.10;100877.00;;;;2064827;28;20272;-61
2023/06/23 05:02:10;;;;;;;8.88;5.72;;;;;23.90;100880.00;;;;2045661;28;20267;-61
2023/06/23 05:03:11;;;;;;;7.10;5.18;;;;;23.80;100861.00;;;;2044635;28;20220;-62
2023/06/23 05:04:11;;;;;;;10.97;6.00;;;;;23.60;100857.00;;;;2055635;28;20233;-62
2023/06/23 05:05:14;;;;;;;12.90;6.70;;;;;23.50;100868.00;;;;2041590;28;20273;-61
2023/06/23 05:06:16;;;;;;;15.57;6.35;;;;;23.50;100874.00;;;;2059869;28;20750;-62
2023/06/23 05:07:17;;;;;;;9.30;6.25;;;;;23.50;100884.00;;;;2065953;28;20219;-61
2023/06/23 05:08:17;;;;;;;6.97;6.03;;;;;23.40;100881.00;;;;2063172;28;20377;-61
2023/06/23 05:09:17;;;;;;;8.30;6.40;;;;;23.40;100881.00;;;;2058427;28;20219;-61